Huvudsida
METAR-TAF:

METAR-TAF

Flygplatser :

Omsk, Ryssland

latitud: 54-58N, longitud: 073-18E, höjd: 122 m

Aktuellt väderrapport

Denna rapport gjordes för 27 minuter sedan, klockan 13:00 UTC
Vind 10 kt från nord
Temperatur 9°C
Fuktighet 40%
Tryck 1010 hPa
Sikt 10 km eller mer
Spridda moln på en höjd av 3300 ft

METAR: UNOO 271300Z 35005MPS 9999 SCT033 09/M04 Q1010 R07/CLRD60 NOSIG RMK QFE749

Tid: 19:27 (13:27 UTC)

Väderprognos

Denna rapport gjordes för 2 timmar och 29 minuter sedan, klockan 10:58 UTC
Prognos gäller från 27 kl. 12 UTC till 28 kl. 12 UTC
Vind 6 kt från nord/nordväst i byarna ända upp till 16 kt
Sikt: 6000 m
Från 28 kl. 0200 UTC
Vind 16 kt från sydväst i byarna ända upp till 29 kt
Sikt: 4000 m
Brutna moln på en höjd av 1000 ft
Brutna moln på en höjd av 3000 ft, Cumulonimbus.
lätta regnskurar

TAF: UNOO 271058Z 2712/2812 34003G08MPS 6000 NSC FM280200 22008G15MPS 4000 -SHRA BKN010 BKN030CB

Aktuella väderrapporter och prognoser från 4000 flygplatser (METAR- och TAF-rapporter).

De tillgängliga stationerna syns som gula och röda prickar på kartan.

För musen över prickarna för att se namnen på stationerna.

Klicka sedan för att få väderrapporter och prognoser.

För att ändra kartan: Klicka på de gröna knapparna med ett svart kors på för att zooma in; den gröna knappen med ett streck på för att zooma ut; eller på de gröna pilarna för angränsande kartor.


METAR-TAF: